Time;durP1;ratioP1;P1;durP2;ratioP2;P2;SDS_P1;SDS_P2;PMS_P1;PMS_P2;Temp;Humidity;BMP_temperature;BMP_pressure;BME280_temperature;BME280_humidity;BME280_pressure;Samples;Min_cycle;Max_cycle;Signal;HPM_P1;HPM_P2
2022/10/19 00:02:07;;;;;;;37.17;19.70;;;;;;;10.76;100.00;100379.78;4216519;28;21416;-73
2022/10/19 00:04:33;;;;;;;33.17;18.87;;;;;;;10.69;100.00;100378.72;4222355;28;20241;-72
2022/10/19 00:07:00;;;;;;;33.60;16.80;;;;;;;10.67;100.00;100367.38;4200461;28;20273;-71
2022/10/19 00:09:28;;;;;;;34.43;19.00;;;;;;;10.61;100.00;100366.16;4210388;28;20237;-74
2022/10/19 00:11:55;;;;;;;38.83;18.87;;;;;;;10.61;100.00;100367.97;4211051;28;20230;-72
2022/10/19 00:14:23;;;;;;;41.57;17.80;;;;;;;10.55;100.00;100372.03;4217805;28;20369;-74
2022/10/19 00:16:51;;;;;;;36.27;17.63;;;;;;;10.51;100.00;100365.34;4212563;28;20264;-70
2022/10/19 00:19:22;;;;;;;33.60;17.07;;;;;;;10.46;100.00;100376.41;4208312;28;20248;-71
2022/10/19 00:21:49;;;;;;;38.17;18.20;;;;;;;10.45;100.00;100366.75;4202544;28;20312;-74
2022/10/19 00:24:21;;;;;;;35.63;17.10;;;;;;;10.41;100.00;100362.72;4209786;28;20228;-69
2022/10/19 00:26:47;;;;;;;35.47;16.53;;;;;;;10.31;100.00;100362.75;4213899;28;20240;-71
2022/10/19 00:29:14;;;;;;;31.83;16.60;;;;;;;10.27;100.00;100363.16;4212687;28;20241;-71
2022/10/19 00:31:41;;;;;;;36.90;16.80;;;;;;;10.22;100.00;100360.09;4208935;28;20232;-69
2022/10/19 00:34:08;;;;;;;36.43;16.70;;;;;;;10.13;100.00;100359.97;4209715;28;20233;-69
2022/10/19 00:36:38;;;;;;;34.77;15.83;;;;;;;10.12;100.00;100363.63;4206677;28;20236;-74
2022/10/19 00:39:09;;;;;;;33.67;16.87;;;;;;;10.07;100.00;100357.91;4211060;28;20235;-72
2022/10/19 00:41:36;;;;;;;33.63;16.13;;;;;;;10.03;100.00;100360.97;4209709;28;21062;-73
2022/10/19 00:44:06;;;;;;;37.70;17.57;;;;;;;9.96;100.00;100354.56;4202817;28;22240;-73
2022/10/19 00:46:35;;;;;;;29.60;16.80;;;;;;;9.88;100.00;100355.25;4222071;28;20300;-70
2022/10/19 00:49:26;;;;;;;30.97;16.43;;;;;;;9.92;100.00;100369.94;4207159;28;21675;-72
2022/10/19 00:51:55;;;;;;;37.20;16.50;;;;;;;9.86;100.00;100365.22;4203624;28;20234;-71
2022/10/19 00:54:22;;;;;;;40.77;17.73;;;;;;;9.81;100.00;100359.47;4203462;28;20608;-73
2022/10/19 00:56:51;;;;;;;37.03;17.47;;;;;;;9.78;100.00;100367.72;4205017;28;20233;-70
2022/10/19 00:59:19;;;;;;;37.13;18.20;;;;;;;9.65;100.00;100363.56;4204302;28;23541;-71
2022/10/19 01:01:47;;;;;;;44.07;19.63;;;;;;;9.67;100.00;100360.75;4205121;28;20236;-72
2022/10/19 01:04:13;;;;;;;50.63;21.63;;;;;;;9.59;100.00;100358.78;4190721;28;20237;-69
2022/10/19 01:06:40;;;;;;;47.00;21.87;;;;;;;9.64;100.00;100351.22;4221254;28;20267;-74
2022/10/19 01:09:08;;;;;;;54.43;21.73;;;;;;;9.65;100.00;100352.09;4196023;28;20243;-70
2022/10/19 01:11:57;;;;;;;50.30;23.17;;;;;;;9.67;100.00;100350.13;4210660;28;20701;-72
2022/10/19 01:14:26;;;;;;;44.17;23.33;;;;;;;9.72;100.00;100348.72;4214705;28;23474;-73
2022/10/19 01:17:05;;;;;;;49.60;23.70;;;;;;;9.84;100.00;100340.59;4205438;28;20243;-72
2022/10/19 01:20:04;;;;;;;55.70;24.70;;;;;;;9.85;100.00;100336.94;4203027;28;20598;-73
2022/10/19 01:23:07;;;;;;;52.27;25.00;;;;;;;9.86;100.00;100334.16;4202278;28;20561;-75
2022/10/19 01:25:55;;;;;;;58.83;24.70;;;;;;;9.83;100.00;100334.44;4215555;28;20302;-72
2022/10/19 01:28:31;;;;;;;55.43;24.60;;;;;;;9.90;100.00;100345.31;4211430;28;20232;-69
2022/10/19 01:31:02;;;;;;;53.53;24.70;;;;;;;9.82;100.00;100339.91;4211256;28;20232;-70
2022/10/19 01:33:32;;;;;;;51.53;23.67;;;;;;;9.80;100.00;100333.88;4208586;28;21103;-70
2022/10/19 01:36:08;;;;;;;48.67;22.80;;;;;;;9.81;100.00;100331.09;4209126;28;24848;-72
2022/10/19 01:38:43;;;;;;;50.77;22.43;;;;;;;9.79;100.00;100321.59;4197563;28;20231;-70
2022/10/19 01:41:15;;;;;;;56.00;22.73;;;;;;;9.81;100.00;100319.59;4215409;28;20455;-70
2022/10/19 01:44:06;;;;;;;56.03;23.00;;;;;;;9.77;100.00;100320.88;4206120;28;20228;-75
2022/10/19 01:46:38;;;;;;;49.13;22.47;;;;;;;9.64;100.00;100319.34;4217820;28;20226;-74
2022/10/19 01:49:12;;;;;;;49.40;20.90;;;;;;;9.64;100.00;100315.84;4212986;28;20231;-74
2022/10/19 01:51:42;;;;;;;50.67;20.20;;;;;;;9.64;100.00;100314.03;4231346;28;20238;-71
2022/10/19 01:54:11;;;;;;;48.97;21.20;;;;;;;9.61;100.00;100316.97;4204203;28;20376;-73
2022/10/19 01:56:41;;;;;;;44.53;20.73;;;;;;;9.62;100.00;100316.03;4214865;28;20230;-71
2022/10/19 01:59:09;;;;;;;52.47;20.40;;;;;;;9.67;100.00;100313.78;4206507;28;20900;-73
2022/10/19 02:01:38;;;;;;;50.13;20.37;;;;;;;9.67;100.00;100313.78;4232667;28;20236;-70
2022/10/19 02:04:05;;;;;;;47.43;19.50;;;;;;;9.64;100.00;100303.41;4211241;28;21720;-73
2022/10/19 02:06:32;;;;;;;45.43;20.03;;;;;;;9.64;100.00;100303.41;4213706;28;21415;-74
2022/10/19 02:08:58;;;;;;;53.90;20.97;;;;;;;9.64;100.00;100297.25;4214217;28;20881;-71
2022/10/19 02:11:25;;;;;;;42.57;19.60;;;;;;;9.57;100.00;100291.66;4220129;28;20689;-70
2022/10/19 02:13:57;;;;;;;48.20;19.50;;;;;;;9.66;100.00;100292.66;4220422;28;23395;-72
2022/10/19 02:16:37;;;;;;;49.23;19.83;;;;;;;9.65;100.00;100305.09;4219660;28;23599;-71
2022/10/19 02:19:07;;;;;;;52.47;22.30;;;;;;;9.67;100.00;100299.66;4214884;28;20236;-69
2022/10/19 02:21:34;;;;;;;47.73;21.47;;;;;;;9.64;100.00;100298.09;4195506;28;20232;-76
2022/10/19 02:24:00;;;;;;;44.37;21.70;;;;;;;9.62;100.00;100284.13;4212681;28;21316;-70
2022/10/19 02:26:27;;;;;;;51.03;21.50;;;;;;;9.61;100.00;100289.59;4211283;28;20231;-72
2022/10/19 02:28:55;;;;;;;46.43;20.07;;;;;;;9.60;100.00;100299.38;4228138;28;20334;-69
2022/10/19 02:31:21;;;;;;;51.67;20.13;;;;;;;9.64;100.00;100295.44;4217138;28;23603;-71
2022/10/19 02:33:48;;;;;;;46.27;21.57;;;;;;;9.62;100.00;100289.44;4210721;28;20388;-73
2022/10/19 02:36:14;;;;;;;51.17;21.20;;;;;;;9.56;100.00;100281.22;4202058;28;20265;-72
2022/10/19 02:38:41;;;;;;;49.87;20.57;;;;;;;9.55;100.00;100292.78;4222218;28;22787;-69
2022/10/19 02:41:14;;;;;;;41.10;18.80;;;;;;;9.60;100.00;100285.22;4226389;28;20247;-75
2022/10/19 02:43:41;;;;;;;41.83;18.50;;;;;;;9.59;100.00;100283.56;4215271;28;20228;-71
2022/10/19 02:46:32;;;;;;;40.00;19.17;;;;;;;9.51;100.00;100284.28;4214681;28;21377;-72
2022/10/19 02:49:03;;;;;;;51.90;20.23;;;;;;;9.47;100.00;100280.22;4229525;28;20257;-71
2022/10/19 02:51:35;;;;;;;43.50;19.17;;;;;;;9.41;100.00;100286.97;4234814;28;20231;-70
2022/10/19 02:54:03;;;;;;;45.40;20.27;;;;;;;9.35;100.00;100276.88;4221909;28;21486;-74
2022/10/19 02:56:32;;;;;;;49.03;19.03;;;;;;;9.40;100.00;100289.75;4234185;28;20231;-75
2022/10/19 02:58:58;;;;;;;37.47;19.23;;;;;;;9.39;100.00;100277.44;4230395;28;20418;-71
2022/10/19 03:01:25;;;;;;;41.30;18.17;;;;;;;9.39;100.00;100282.75;4219977;28;20232;-70
2022/10/19 03:03:52;;;;;;;45.53;17.83;;;;;;;9.38;100.00;100281.91;4226462;28;21246;-72
2022/10/19 03:06:18;;;;;;;41.50;18.90;;;;;;;9.26;100.00;100273.25;4225756;28;20909;-71
2022/10/19 03:08:45;;;;;;;41.53;17.67;;;;;;;9.28;100.00;100273.97;4240745;28;20344;-74
2022/10/19 03:11:12;;;;;;;40.30;17.73;;;;;;;9.27;100.00;100274.94;4219909;28;20242;-78
2022/10/19 03:13:40;;;;;;;44.50;18.73;;;;;;;9.24;100.00;100280.50;4232236;28;21223;-72
2022/10/19 03:16:08;;;;;;;41.33;19.07;;;;;;;9.25;100.00;100273.41;4220821;28;20234;-69
2022/10/19 03:18:35;;;;;;;46.00;20.30;;;;;;;9.17;100.00;100274.09;4227411;28;20242;-74
2022/10/19 03:21:07;;;;;;;42.60;19.60;;;;;;;9.14;100.00;100270.91;4221120;28;20373;-70
2022/10/19 03:23:34;;;;;;;48.57;19.87;;;;;;;9.18;100.00;100267.00;4221562;28;20235;-71
2022/10/19 03:26:00;;;;;;;49.40;20.03;;;;;;;9.16;100.00;100272.44;4225607;28;20231;-72
2022/10/19 03:28:27;;;;;;;47.13;20.37;;;;;;;9.14;100.00;100263.75;4226030;28;20238;-71
2022/10/19 03:30:54;;;;;;;53.07;19.40;;;;;;;9.10;100.00;100272.97;4228285;28;21220;-71
2022/10/19 03:33:21;;;;;;;49.73;20.43;;;;;;;9.09;100.00;100272.16;4221994;28;20382;-71
2022/10/19 03:35:47;;;;;;;52.23;20.37;;;;;;;9.06;100.00;100271.56;4225128;28;20241;-71
2022/10/19 03:38:14;;;;;;;48.63;21.10;;;;;;;9.16;100.00;100258.31;4222947;28;21815;-72
2022/10/19 03:40:41;;;;;;;54.13;22.37;;;;;;;9.14;100.00;100266.41;4226442;28;23029;-71
2022/10/19 03:43:08;;;;;;;49.60;21.37;;;;;;;9.14;100.00;100265.59;4218050;28;21332;-73
2022/10/19 03:45:34;;;;;;;58.60;22.00;;;;;;;9.09;100.00;100261.53;4231510;28;20230;-72
2022/10/19 03:48:01;;;;;;;50.07;20.17;;;;;;;9.10;100.00;100259.69;4211488;28;20311;-71
2022/10/19 03:50:27;;;;;;;44.57;20.37;;;;;;;9.07;100.00;100257.34;4217238;28;21212;-71
2022/10/19 03:52:54;;;;;;;38.57;18.97;;;;;;;9.09;100.00;100250.91;4216178;28;20491;-70
2022/10/19 03:55:21;;;;;;;48.77;21.07;;;;;;;9.12;100.00;100255.09;4216606;28;20326;-78
2022/10/19 03:57:47;;;;;;;50.17;19.83;;;;;;;9.14;100.00;100247.84;4223046;28;23654;-71
2022/10/19 04:00:14;;;;;;;36.33;18.27;;;;;;;9.19;100.00;100250.91;4224155;28;20328;-70
2022/10/19 04:02:41;;;;;;;41.20;18.23;;;;;;;9.21;100.00;100254.25;4236317;28;20237;-73
2022/10/19 04:05:07;;;;;;;42.80;19.30;;;;;;;9.18;100.00;100254.53;4232036;28;20240;-73
2022/10/19 04:07:34;;;;;;;43.80;19.47;;;;;;;9.19;100.00;100250.91;4222792;28;20234;-71
2022/10/19 04:10:01;;;;;;;44.50;18.37;;;;;;;9.22;100.00;100255.09;4236949;28;20288;-72
2022/10/19 04:12:27;;;;;;;38.10;17.67;;;;;;;9.21;100.00;100253.44;4216031;28;20238;-72
2022/10/19 04:14:54;;;;;;;42.40;16.57;;;;;;;9.24;100.00;100253.13;4219956;28;20243;-70
2022/10/19 04:17:24;;;;;;;46.90;17.53;;;;;;;9.23;100.00;100241.69;4227750;28;20228;-72
2022/10/19 04:19:50;;;;;;;33.97;17.30;;;;;;;9.30;100.00;100252.59;4229114;28;21498;-72
2022/10/19 04:22:17;;;;;;;39.57;16.03;;;;;;;9.34;100.00;100247.81;4218248;28;23230;-71
2022/10/19 04:24:43;;;;;;;33.70;15.60;;;;;;;9.38;100.00;100259.84;4231946;28;21148;-69
2022/10/19 04:27:10;;;;;;;36.57;15.50;;;;;;;9.33;100.00;100246.16;4233112;28;20235;-72
2022/10/19 04:29:36;;;;;;;34.83;14.67;;;;;;;9.32;100.00;100249.75;4244117;28;22899;-70
2022/10/19 04:32:03;;;;;;;38.27;15.10;;;;;;;9.30;100.00;100247.28;4229182;28;21162;-73
2022/10/19 04:34:31;;;;;;;35.83;15.37;;;;;;;9.34;100.00;100242.50;4236457;28;20227;-71
2022/10/19 04:37:03;;;;;;;30.70;13.47;;;;;;;9.35;100.00;100245.03;4223256;28;20232;-71
2022/10/19 04:39:29;;;;;;;32.67;14.27;;;;;;;9.32;100.00;100239.16;4212670;28;20243;-71
2022/10/19 04:41:58;;;;;;;29.73;13.07;;;;;;;9.32;100.00;100242.66;4217965;28;20236;-70
2022/10/19 04:44:24;;;;;;;32.33;14.37;;;;;;;9.37;100.00;100236.94;4224595;28;20236;-69
2022/10/19 04:46:51;;;;;;;29.27;12.90;;;;;;;9.34;100.00;100242.50;4224679;28;20614;-69
2022/10/19 04:49:18;;;;;;;32.07;13.37;;;;;;;9.33;100.00;100227.56;4228109;28;20235;-70
2022/10/19 04:51:45;;;;;;;28.63;13.27;;;;;;;9.33;100.00;100220.44;4231490;28;21741;-71
2022/10/19 04:54:12;;;;;;;27.27;13.23;;;;;;;9.33;100.00;100227.56;4227184;28;20243;-70
2022/10/19 04:56:39;;;;;;;29.13;13.17;;;;;;;9.35;100.00;100222.94;4246210;28;20311;-69
2022/10/19 04:59:05;;;;;;;34.07;13.97;;;;;;;9.33;100.00;100230.22;4234365;28;20607;-69
2022/10/19 05:01:31;;;;;;;31.17;12.23;;;;;;;9.33;100.00;100217.78;4250508;28;20614;-73
2022/10/19 05:04:00;;;;;;;31.73;12.23;;;;;;;9.40;100.00;100223.34;4220296;28;20598;-69
2022/10/19 05:06:27;;;;;;;26.40;12.07;;;;;;;9.38;100.00;100233.28;4233796;28;21783;-72
2022/10/19 05:08:53;;;;;;;27.47;12.43;;;;;;;9.38;100.00;100223.47;4204056;28;21303;-75
2022/10/19 05:11:20;;;;;;;29.07;12.33;;;;;;;9.35;100.00;100213.16;4229509;28;20285;-74
2022/10/19 05:13:47;;;;;;;27.83;12.07;;;;;;;9.38;100.00;100234.09;4252538;28;20375;-69
2022/10/19 05:16:16;;;;;;;31.17;12.03;;;;;;;9.29;100.00;100230.50;4235211;28;20493;-72
2022/10/19 05:18:50;;;;;;;27.70;11.10;;;;;;;9.32;100.00;100233.84;4218071;28;20252;-70
2022/10/19 05:21:17;;;;;;;29.53;11.03;;;;;;;9.33;100.00;100232.88;4237282;28;20240;-70
2022/10/19 05:23:44;;;;;;;25.17;10.30;;;;;;;9.34;100.00;100226.56;4222679;28;20319;-71
2022/10/19 05:26:16;;;;;;;25.03;9.50;;;;;;;9.34;100.00;100237.19;4229218;28;20266;-69
2022/10/19 05:28:50;;;;;;;24.27;9.77;;;;;;;9.36;100.00;100240.53;4221838;28;21840;-71
2022/10/19 05:31:19;;;;;;;29.37;9.67;;;;;;;9.38;100.00;100238.59;4235180;28;20385;-78
2022/10/19 05:33:46;;;;;;;21.33;9.77;;;;;;;9.31;100.00;100235.66;4262866;28;20929;-69
2022/10/19 05:36:13;;;;;;;21.53;8.63;;;;;;;9.39;100.00;100234.94;4249270;28;20228;-72
2022/10/19 05:38:41;;;;;;;20.57;8.07;;;;;;;9.37;100.00;100236.94;4247790;28;20242;-73
2022/10/19 05:41:07;;;;;;;30.27;8.83;;;;;;;9.31;100.00;100240.97;4228198;28;20244;-71
2022/10/19 05:43:34;;;;;;;21.43;8.67;;;;;;;9.34;100.00;100239.84;4228104;28;22037;-72
2022/10/19 05:46:09;;;;;;;18.73;6.93;;;;;;;9.43;100.00;100246.97;4225752;28;20700;-72
2022/10/19 05:48:36;;;;;;;26.23;7.43;;;;;;;9.42;100.00;100246.13;4216592;28;22415;-72
2022/10/19 05:51:04;;;;;;;16.50;7.50;;;;;;;9.39;100.00;100240.25;4225670;28;20229;-73
2022/10/19 05:53:32;;;;;;;21.47;7.20;;;;;;;9.47;100.00;100238.56;4240384;28;20563;-70
2022/10/19 05:55:58;;;;;;;19.83;6.30;;;;;;;9.48;100.00;100244.72;4244126;28;20244;-72
2022/10/19 05:58:25;;;;;;;13.63;6.63;;;;;;;9.50;100.00;100232.13;4218814;28;20240;-72
2022/10/19 06:00:52;;;;;;;12.00;6.30;;;;;;;9.46;100.00;100233.41;4237607;28;20246;-77
2022/10/19 06:03:20;;;;;;;13.63;6.23;;;;;;;9.51;100.00;100231.16;4240682;28;20713;-74
2022/10/19 06:05:48;;;;;;;22.80;6.00;;;;;;;9.52;100.00;100235.47;4234787;28;20361;-76
2022/10/19 06:08:16;;;;;;;16.20;6.10;;;;;;;9.51;100.00;100239.13;4231080;28;20241;-75
2022/10/19 06:10:43;;;;;;;12.80;6.13;;;;;;;9.52;100.00;100235.47;4218592;28;21217;-72
2022/10/19 06:13:11;;;;;;;13.40;6.30;;;;;;;9.60;100.00;100232.97;4216951;28;20420;-73
2022/10/19 06:15:39;;;;;;;18.67;6.40;;;;;;;9.52;100.00;100240.78;4227007;28;23019;-71
2022/10/19 06:18:06;;;;;;;19.57;6.23;;;;;;;9.54;100.00;100233.53;4226394;28;20594;-72
2022/10/19 06:20:34;;;;;;;21.50;6.53;;;;;;;9.58;100.00;100234.09;4212115;28;20247;-72
2022/10/19 06:23:01;;;;;;;20.27;6.07;;;;;;;9.56;100.00;100242.19;4223556;28;21062;-82
2022/10/19 06:25:32;;;;;;;16.80;6.27;;;;;;;9.57;100.00;100235.88;4204992;28;20244;-71
2022/10/19 06:27:59;;;;;;;14.50;5.87;;;;;;;9.63;100.00;100242.47;4223705;28;20385;-72
2022/10/19 06:30:26;;;;;;;20.13;6.17;;;;;;;9.64;100.00;100236.16;4219650;28;20332;-74
2022/10/19 06:32:53;;;;;;;16.70;5.80;;;;;;;9.60;100.00;100246.25;4234987;28;20617;-79
2022/10/19 06:35:20;;;;;;;21.30;6.20;;;;;;;9.61;100.00;100245.25;4214339;28;20240;-70
2022/10/19 06:37:46;;;;;;;18.37;5.90;;;;;;;9.57;100.00;100238.53;4215877;28;20231;-70
2022/10/19 06:40:13;;;;;;;15.83;5.83;;;;;;;9.60;100.00;100240.94;4207292;28;21059;-74
2022/10/19 06:42:39;;;;;;;17.50;6.47;;;;;;;9.67;100.00;100239.38;4216590;28;20807;-72
2022/10/19 06:45:09;;;;;;;20.30;6.83;;;;;;;9.70;100.00;100236.41;4218069;28;20481;-72
2022/10/19 06:47:36;;;;;;;16.20;6.20;;;;;;;9.72;100.00;100241.59;4210343;28;21673;-72
2022/10/19 06:50:05;;;;;;;19.93;6.57;;;;;;;9.77;100.00;100233.19;4209247;28;21751;-73
2022/10/19 06:52:32;;;;;;;16.07;6.33;;;;;;;9.81;100.00;100239.88;4228159;28;20228;-75
2022/10/19 06:55:00;;;;;;;19.33;6.47;;;;;;;9.81;100.00;100234.56;4214631;28;21137;-73
2022/10/19 06:57:27;;;;;;;17.97;7.47;;;;;;;9.86;100.00;100242.97;4222671;28;20303;-72
2022/10/19 06:59:54;;;;;;;17.20;6.70;;;;;;;9.95;100.00;100250.06;4205544;28;22396;-73
2022/10/19 07:02:21;;;;;;;19.87;6.57;;;;;;;9.87;100.00;100252.59;4210826;28;20296;-71
2022/10/19 07:04:47;;;;;;;13.93;6.63;;;;;;;9.86;100.00;100248.28;4198366;28;20618;-78
2022/10/19 07:07:14;;;;;;;20.27;6.47;;;;;;;9.84;100.00;100242.25;4219678;28;20851;-74
2022/10/19 07:09:40;;;;;;;20.37;7.00;;;;;;;9.96;100.00;100248.25;4225683;28;22595;-72
2022/10/19 07:12:09;;;;;;;14.97;5.93;;;;;;;9.98;100.00;100247.09;4216552;28;20236;-75
2022/10/19 07:14:38;;;;;;;9.83;4.87;;;;;;;10.20;100.00;100239.72;4216457;28;21744;-75
2022/10/19 07:17:05;;;;;;;18.30;5.33;;;;;;;10.20;100.00;100239.72;4223892;28;22492;-75
2022/10/19 07:19:32;;;;;;;9.67;4.87;;;;;;;10.11;100.00;100242.31;4223136;28;20317;-71
2022/10/19 07:21:59;;;;;;;12.03;4.90;;;;;;;10.20;100.00;100242.38;4252437;28;20236;-75
2022/10/19 07:24:25;;;;;;;9.67;4.90;;;;;;;10.26;100.00;100244.47;4250974;28;20241;-73
2022/10/19 07:26:52;;;;;;;12.73;4.10;;;;;;;10.32;100.00;100251.88;4246603;28;20255;-73
2022/10/19 07:29:19;;;;;;;9.63;4.50;;;;;;;10.54;100.00;100251.47;4294520;28;22455;-72
2022/10/19 07:31:46;;;;;;;10.10;3.60;;;;;;;10.78;100.00;100258.88;4280619;28;21804;-80
2022/10/19 07:34:13;;;;;;;7.70;3.90;;;;;;;10.87;100.00;100251.81;4231614;28;20740;-73
2022/10/19 07:36:44;;;;;;;7.20;3.63;;;;;;;10.90;100.00;100254.16;4226960;28;20236;-76
2022/10/19 07:39:12;;;;;;;11.53;3.53;;;;;;;11.12;100.00;100255.56;4224139;28;20502;-73
2022/10/19 07:41:39;;;;;;;11.20;3.67;;;;;;;11.96;100.00;100262.19;4258267;28;20243;-75
2022/10/19 07:44:05;;;;;;;13.57;3.70;;;;;;;11.82;99.29;100254.72;4249179;28;20493;-73
2022/10/19 07:46:38;;;;;;;7.87;3.53;;;;;;;11.53;100.00;100260.38;4273780;28;20334;-72
2022/10/19 07:49:08;;;;;;;12.07;3.10;;;;;;;11.14;100.00;100260.72;4236577;28;22742;-75
2022/10/19 07:51:38;;;;;;;9.17;3.40;;;;;;;10.86;100.00;100263.44;4240348;28;20247;-75
2022/10/19 07:54:05;;;;;;;10.07;4.37;;;;;;;10.83;100.00;100266.41;4225422;28;20412;-78
2022/10/19 07:56:32;;;;;;;15.10;4.10;;;;;;;10.76;100.00;100265.34;4218956;28;20416;-75
2022/10/19 07:58:59;;;;;;;11.77;3.97;;;;;;;10.78;100.00;100274.84;4233483;28;20489;-74
2022/10/19 08:01:33;;;;;;;15.23;3.97;;;;;;;10.71;100.00;100268.44;4248107;28;20362;-73
2022/10/19 08:04:00;;;;;;;10.73;4.10;;;;;;;10.82;100.00;100263.94;4220275;28;20237;-76
2022/10/19 08:06:47;;;;;;;9.20;3.83;;;;;;;11.02;100.00;100269.94;4239819;28;20232;-75
2022/10/19 08:09:13;;;;;;;14.10;4.30;;;;;;;11.05;100.00;100257.16;4244643;28;20237;-77
2022/10/19 08:12:00;;;;;;;12.60;4.17;;;;;;;10.80;100.00;100256.06;4227745;28;20289;-71
2022/10/19 08:14:27;;;;;;;6.40;3.33;;;;;;;10.71;100.00;100259.63;4221956;28;20418;-73
2022/10/19 08:16:53;;;;;;;8.43;4.00;;;;;;;10.64;100.00;100251.41;4230794;28;20418;-74
2022/10/19 08:19:21;;;;;;;17.33;4.50;;;;;;;10.55;100.00;100258.47;4223714;28;20300;-73
2022/10/19 08:21:48;;;;;;;8.73;4.03;;;;;;;10.48;100.00;100256.56;4236387;28;20330;-73
2022/10/19 08:24:16;;;;;;;13.63;5.13;;;;;;;10.38;100.00;100259.28;4234395;28;20230;-74
2022/10/19 08:26:43;;;;;;;10.40;5.50;;;;;;;10.28;100.00;100263.78;4229050;28;20248;-78
2022/10/19 08:29:15;;;;;;;8.27;5.17;;;;;;;10.11;100.00;100260.91;4226908;28;20665;-76
2022/10/19 08:31:43;;;;;;;12.67;6.23;;;;;;;9.89;100.00;100262.09;4232508;28;25788;-74
2022/10/19 08:34:10;;;;;;;12.40;5.93;;;;;;;9.83;100.00;100261.84;4214491;28;20231;-72
2022/10/19 08:36:36;;;;;;;14.00;6.90;;;;;;;9.79;100.00;100258.63;4206578;28;20240;-73
2022/10/19 08:39:05;;;;;;;17.70;7.23;;;;;;;9.77;100.00;100254.44;4217620;28;20242;-75
2022/10/19 08:41:36;;;;;;;15.47;7.13;;;;;;;9.79;100.00;100253.31;4245168;28;20246;-76
2022/10/19 08:44:24;;;;;;;14.73;7.27;;;;;;;9.78;100.00;100256.13;4231199;28;21689;-75
2022/10/19 08:46:58;;;;;;;11.90;6.83;;;;;;;9.75;100.00;100257.25;4237368;28;20670;-75
2022/10/19 08:49:29;;;;;;;11.10;6.83;;;;;;;9.83;100.00;100259.16;4231865;28;20238;-72
2022/10/19 08:51:59;;;;;;;14.77;7.23;;;;;;;9.91;100.00;100252.16;4206247;28;20865;-70
2022/10/19 08:54:43;;;;;;;13.07;6.60;;;;;;;10.02;100.00;100261.78;4271317;28;20376;-74
2022/10/19 08:57:23;;;;;;;9.33;6.20;;;;;;;10.06;100.00;100264.97;4215480;28;20247;-67
2022/10/19 09:00:05;;;;;;;15.03;6.50;;;;;;;10.14;100.00;100263.28;4242495;28;20227;-70
2022/10/19 09:02:42;;;;;;;9.27;6.23;;;;;;;10.27;100.00;100270.06;4236229;28;20241;-70
2022/10/19 09:05:43;;;;;;;10.07;5.33;;;;;;;10.25;100.00;100274.69;4225461;28;20227;-70
2022/10/19 09:08:11;;;;;;;11.33;5.60;;;;;;;10.16;100.00;100265.78;4244925;28;20241;-75
2022/10/19 09:10:45;;;;;;;13.23;5.40;;;;;;;10.20;100.00;100272.47;4230823;28;20286;-73
2022/10/19 09:13:20;;;;;;;16.00;5.33;;;;;;;10.14;100.00;100273.91;4184986;28;21639;-67
2022/10/19 09:15:48;;;;;;;10.90;5.03;;;;;;;10.23;100.00;100274.00;4233871;28;20235;-71
2022/10/19 09:18:21;;;;;;;10.70;4.70;;;;;;;10.26;100.00;100269.25;4231801;28;20315;-72
2022/10/19 09:20:50;;;;;;;10.27;4.10;;;;;;;10.34;100.00;100281.81;4222385;28;21704;-76
2022/10/19 09:23:16;;;;;;;9.40;4.37;;;;;;;10.41;100.00;100285.56;4223322;28;20326;-69
2022/10/19 09:25:42;;;;;;;11.87;4.13;;;;;;;10.43;100.00;100282.78;4222680;28;20241;-74
2022/10/19 09:28:31;;;;;;;7.30;3.93;;;;;;;10.53;100.00;100284.38;4238651;28;20228;-66
2022/10/19 09:31:06;;;;;;;7.20;3.70;;;;;;;10.57;100.00;100288.41;4228698;28;20231;-71
2022/10/19 09:33:35;;;;;;;9.43;3.40;;;;;;;10.51;100.00;100290.84;4239134;28;20244;-76
2022/10/19 09:36:04;;;;;;;11.60;3.43;;;;;;;10.59;100.00;100292.78;4224107;28;20236;-69
2022/10/19 09:38:31;;;;;;;9.13;3.60;;;;;;;10.66;100.00;100293.84;4223212;28;20299;-71
2022/10/19 09:41:11;;;;;;;9.57;3.87;;;;;;;10.70;100.00;100303.19;4208387;28;20263;-70
2022/10/19 09:43:38;;;;;;;8.30;3.90;;;;;;;10.88;100.00;100311.22;4217714;28;20232;-69
2022/10/19 09:46:11;;;;;;;8.20;4.00;;;;;;;11.03;100.00;100306.19;4200107;28;20282;-72
2022/10/19 09:48:50;;;;;;;15.57;3.97;;;;;;;11.09;100.00;100298.44;4218424;28;22859;-70
2022/10/19 09:51:17;;;;;;;12.20;3.80;;;;;;;11.40;100.00;100295.41;4235687;28;20310;-75
2022/10/19 09:53:50;;;;;;;10.40;2.93;;;;;;;11.89;100.00;100302.97;4225950;28;20607;-85
2022/10/19 09:56:22;;;;;;;5.97;2.20;;;;;;;11.93;100.00;100304.31;4238185;28;20282;-74
2022/10/19 09:58:51;;;;;;;5.20;1.70;;;;;;;11.83;100.00;100309.72;4210552;28;20233;-73
2022/10/19 10:01:38;;;;;;;7.67;2.27;;;;;;;11.58;100.00;100327.34;4207596;28;20237;-71
2022/10/19 10:04:16;;;;;;;8.20;1.30;;;;;;;11.22;100.00;100324.72;4195738;28;20304;-71
2022/10/19 10:06:46;;;;;;;3.27;0.80;;;;;;;10.97;100.00;100336.94;4223063;28;20238;-72
2022/10/19 10:09:17;;;;;;;3.70;0.70;;;;;;;10.72;99.84;100349.13;4223659;28;20369;-71
2022/10/19 10:11:46;;;;;;;1.47;0.50;;;;;;;10.31;96.37;100337.97;4218780;28;20228;-69
2022/10/19 10:14:19;;;;;;;1.17;0.27;;;;;;;10.18;96.71;100337.44;4212668;28;20635;-74
2022/10/19 10:16:46;;;;;;;4.10;0.70;;;;;;;10.02;97.60;100335.38;4212835;28;21665;-69
2022/10/19 10:19:15;;;;;;;4.97;1.00;;;;;;;9.92;98.50;100343.38;4205304;28;20271;-71
2022/10/19 10:21:49;;;;;;;0.93;0.40;;;;;;;9.93;98.93;100334.44;4199192;28;20241;-71
2022/10/19 10:24:19;;;;;;;1.03;0.50;;;;;;;10.03;97.97;100329.91;4199359;28;20724;-69
2022/10/19 10:26:51;;;;;;;1.20;0.40;;;;;;;10.07;99.01;100335.78;4199363;28;21610;-72
2022/10/19 10:29:32;;;;;;;2.17;0.40;;;;;;;10.10;99.93;100336.31;4197795;28;23722;-74
2022/10/19 10:32:04;;;;;;;2.40;0.30;;;;;;;10.25;98.54;100343.84;4212319;28;21366;-72
2022/10/19 10:34:39;;;;;;;1.30;0.60;;;;;;;10.33;97.16;100339.50;4204755;28;20242;-80
2022/10/19 10:37:37;;;;;;;2.80;0.33;;;;;;;10.35;95.95;100331.41;4203844;28;20971;-69
2022/10/19 10:40:04;;;;;;;2.67;0.50;;;;;;;10.42;97.07;100339.59;4219253;28;20234;-72
2022/10/19 10:42:35;;;;;;;3.57;0.60;;;;;;;10.54;96.59;100344.59;4254193;28;20256;-75
2022/10/19 10:45:03;;;;;;;1.20;0.40;;;;;;;10.82;94.55;100336.63;4236726;28;20236;-71
2022/10/19 10:47:31;;;;;;;2.33;0.50;;;;;;;10.88;93.84;100344.00;4239336;28;20239;-71
2022/10/19 10:50:02;;;;;;;1.60;0.50;;;;;;;10.84;94.07;100350.63;4208163;28;20228;-71
2022/10/19 10:52:32;;;;;;;1.33;0.30;;;;;;;10.70;94.04;100343.13;4237004;28;20233;-70
2022/10/19 10:55:16;;;;;;;1.23;0.50;;;;;;;10.56;94.89;100331.16;4227952;28;20308;-70
2022/10/19 10:57:47;;;;;;;3.83;0.77;;;;;;;10.63;95.69;100339.38;4216606;28;25623;-72
2022/10/19 11:00:19;;;;;;;2.30;0.67;;;;;;;10.74;95.05;100345.31;4252751;28;20231;-69
2022/10/19 11:02:51;;;;;;;2.47;0.80;;;;;;;10.92;95.36;100345.38;4255616;28;25799;-68
2022/10/19 11:05:25;;;;;;;4.27;0.80;;;;;;;11.06;94.72;100348.53;4227972;28;20305;-69
2022/10/19 11:07:57;;;;;;;4.30;0.77;;;;;;;11.29;94.58;100346.28;4229232;28;20601;-70
2022/10/19 11:10:34;;;;;;;2.70;0.80;;;;;;;11.34;94.57;100346.66;4251408;28;20336;-69
2022/10/19 11:13:27;;;;;;;1.30;0.83;;;;;;;11.29;95.36;100352.44;4248353;28;23830;-71
2022/10/19 11:16:01;;;;;;;3.03;0.93;;;;;;;11.50;95.67;100340.63;4233885;28;22267;-70
2022/10/19 11:18:33;;;;;;;8.13;1.33;;;;;;;11.63;92.96;100354.38;4277902;28;20230;-71
2022/10/19 11:21:05;;;;;;;2.07;1.00;;;;;;;11.71;91.38;100346.47;4231340;28;20552;-71
2022/10/19 11:23:54;;;;;;;5.40;1.30;;;;;;;11.87;90.40;100351.13;4251586;28;20487;-82
2022/10/19 11:26:29;;;;;;;3.50;1.03;;;;;;;12.04;89.52;100349.41;4267147;28;20234;-71